Adrian, Michigan
Current Conditions -  °F | °C
As of 3:53 PM on Tuesday 27 Jan 2015 (Local Time) from KADG Reporting Station
Clear Clear  
Wind Chill: 16°   Ceiling: Unl
Heat Index: 26°   Visibility: 10mi
Dew Point: 12°   Wind: 10mph
Humidity: 55%   Direction: 350°N
Pressure: 30.14"   Gusts: NA
Location:  41.9°N, 84.04°W
Report Text: KADG 272053Z AUTO 35009KT 10SM CLR M03/M11 A3014 RMK AO2 SLP222 T10331111 53011
Loading
Personal Weather Stations






























Interactive Weather Map New forecast layout! Learn more

10-Day Weather Forecast

Advertisements
Track Severe Weather on mobile